sensor_id;sensor_type;location;lat;lon;timestamp;P1;durP1;ratioP1;P2;durP2;ratioP2
65033;SDS011;51601;51.356;12.458;2023-06-26T00:01:38;8.93;;;5.70;;
65033;SDS011;51601;51.356;12.458;2023-06-26T00:05:56;10.70;;;5.97;;
65033;SDS011;51601;51.356;12.458;2023-06-26T00:10:19;11.25;;;6.28;;
65033;SDS011;51601;51.356;12.458;2023-06-26T00:14:35;10.93;;;6.28;;
65033;SDS011;51601;51.356;12.458;2023-06-26T00:18:53;10.98;;;6.05;;
65033;SDS011;51601;51.356;12.458;2023-06-26T00:23:12;9.60;;;5.50;;
65033;SDS011;51601;51.356;12.458;2023-06-26T00:27:34;9.98;;;5.85;;
65033;SDS011;51601;51.356;12.458;2023-06-26T00:31:54;10.20;;;5.78;;
65033;SDS011;51601;51.356;12.458;2023-06-26T00:36:12;9.87;;;5.57;;
65033;SDS011;51601;51.356;12.458;2023-06-26T00:40:30;10.27;;;5.43;;
65033;SDS011;51601;51.356;12.458;2023-06-26T00:44:49;9.75;;;5.85;;
65033;SDS011;51601;51.356;12.458;2023-06-26T00:49:06;9.97;;;5.63;;
65033;SDS011;51601;51.356;12.458;2023-06-26T00:53:24;9.48;;;5.28;;
65033;SDS011;51601;51.356;12.458;2023-06-26T00:57:42;8.30;;;5.05;;
65033;SDS011;51601;51.356;12.458;2023-06-26T01:02:02;11.10;;;5.85;;
65033;SDS011;51601;51.356;12.458;2023-06-26T01:06:22;10.23;;;5.87;;
65033;SDS011;51601;51.356;12.458;2023-06-26T01:10:42;9.55;;;5.72;;
65033;SDS011;51601;51.356;12.458;2023-06-26T01:15:01;10.18;;;5.55;;
65033;SDS011;51601;51.356;12.458;2023-06-26T01:19:23;10.43;;;5.70;;
65033;SDS011;51601;51.356;12.458;2023-06-26T01:23:47;10.57;;;6.25;;
65033;SDS011;51601;51.356;12.458;2023-06-26T01:28:14;9.75;;;5.65;;
65033;SDS011;51601;51.356;12.458;2023-06-26T01:32:34;10.47;;;5.87;;
65033;SDS011;51601;51.356;12.458;2023-06-26T01:36:52;10.13;;;5.85;;
65033;SDS011;51601;51.356;12.458;2023-06-26T01:41:10;10.13;;;6.03;;
65033;SDS011;51601;51.356;12.458;2023-06-26T01:45:30;12.15;;;5.90;;
65033;SDS011;51601;51.356;12.458;2023-06-26T01:49:51;11.93;;;5.80;;
65033;SDS011;51601;51.356;12.458;2023-06-26T01:54:16;12.00;;;5.93;;
65033;SDS011;51601;51.356;12.458;2023-06-26T01:58:35;10.02;;;5.97;;
65033;SDS011;51601;51.356;12.458;2023-06-26T02:02:58;9.47;;;5.07;;
65033;SDS011;51601;51.356;12.458;2023-06-26T02:07:17;11.40;;;5.28;;
65033;SDS011;51601;51.356;12.458;2023-06-26T02:11:35;9.93;;;5.78;;
65033;SDS011;51601;51.356;12.458;2023-06-26T02:15:53;10.40;;;5.63;;
65033;SDS011;51601;51.356;12.458;2023-06-26T02:20:13;8.73;;;4.85;;
65033;SDS011;51601;51.356;12.458;2023-06-26T02:24:32;10.32;;;5.15;;
65033;SDS011;51601;51.356;12.458;2023-06-26T02:28:54;13.38;;;5.53;;
65033;SDS011;51601;51.356;12.458;2023-06-26T02:33:12;9.77;;;5.30;;
65033;SDS011;51601;51.356;12.458;2023-06-26T02:37:31;9.88;;;6.10;;
65033;SDS011;51601;51.356;12.458;2023-06-26T02:41:48;9.50;;;4.68;;
65033;SDS011;51601;51.356;12.458;2023-06-26T02:46:06;11.43;;;5.60;;
65033;SDS011;51601;51.356;12.458;2023-06-26T02:50:24;11.05;;;5.97;;
65033;SDS011;51601;51.356;12.458;2023-06-26T02:54:59;11.07;;;5.72;;
65033;SDS011;51601;51.356;12.458;2023-06-26T02:59:18;11.03;;;5.80;;
65033;SDS011;51601;51.356;12.458;2023-06-26T03:03:37;12.88;;;5.75;;
65033;SDS011;51601;51.356;12.458;2023-06-26T03:08:04;11.25;;;5.65;;
65033;SDS011;51601;51.356;12.458;2023-06-26T03:12:26;9.73;;;5.50;;
65033;SDS011;51601;51.356;12.458;2023-06-26T03:16:46;9.77;;;5.60;;
65033;SDS011;51601;51.356;12.458;2023-06-26T03:21:04;12.65;;;5.90;;
65033;SDS011;51601;51.356;12.458;2023-06-26T03:25:22;9.80;;;5.00;;
65033;SDS011;51601;51.356;12.458;2023-06-26T03:30:18;10.87;;;5.87;;
65033;SDS011;51601;51.356;12.458;2023-06-26T03:34:41;10.85;;;6.18;;
65033;SDS011;51601;51.356;12.458;2023-06-26T03:38:59;11.60;;;5.72;;
65033;SDS011;51601;51.356;12.458;2023-06-26T03:43:17;10.93;;;6.20;;
65033;SDS011;51601;51.356;12.458;2023-06-26T03:47:49;10.68;;;5.75;;
65033;SDS011;51601;51.356;12.458;2023-06-26T03:52:06;11.35;;;6.05;;
65033;SDS011;51601;51.356;12.458;2023-06-26T03:56:24;11.55;;;5.60;;
65033;SDS011;51601;51.356;12.458;2023-06-26T04:00:42;9.17;;;5.03;;
65033;SDS011;51601;51.356;12.458;2023-06-26T04:05:01;10.20;;;5.95;;
65033;SDS011;51601;51.356;12.458;2023-06-26T04:09:21;7.40;;;3.78;;
65033;SDS011;51601;51.356;12.458;2023-06-26T04:13:39;8.80;;;5.30;;
65033;SDS011;51601;51.356;12.458;2023-06-26T04:17:57;8.65;;;4.72;;
65033;SDS011;51601;51.356;12.458;2023-06-26T04:22:17;11.27;;;5.28;;
65033;SDS011;51601;51.356;12.458;2023-06-26T04:26:33;11.13;;;5.53;;
65033;SDS011;51601;51.356;12.458;2023-06-26T04:30:51;12.68;;;5.97;;
65033;SDS011;51601;51.356;12.458;2023-06-26T04:35:09;10.13;;;5.40;;
65033;SDS011;51601;51.356;12.458;2023-06-26T04:39:29;8.30;;;5.50;;
65033;SDS011;51601;51.356;12.458;2023-06-26T04:43:49;10.33;;;5.40;;
65033;SDS011;51601;51.356;12.458;2023-06-26T04:48:07;8.82;;;4.55;;
65033;SDS011;51601;51.356;12.458;2023-06-26T04:52:25;12.63;;;5.70;;
65033;SDS011;51601;51.356;12.458;2023-06-26T04:56:44;9.10;;;5.53;;
65033;SDS011;51601;51.356;12.458;2023-06-26T05:01:04;10.48;;;5.68;;
65033;SDS011;51601;51.356;12.458;2023-06-26T05:05:22;8.45;;;5.10;;
65033;SDS011;51601;51.356;12.458;2023-06-26T05:09:40;9.90;;;5.40;;
65033;SDS011;51601;51.356;12.458;2023-06-26T05:13:59;8.93;;;5.45;;
65033;SDS011;51601;51.356;12.458;2023-06-26T05:18:16;8.10;;;5.05;;
65033;SDS011;51601;51.356;12.458;2023-06-26T05:22:34;7.90;;;4.65;;
65033;SDS011;51601;51.356;12.458;2023-06-26T05:26:56;9.17;;;4.57;;
65033;SDS011;51601;51.356;12.458;2023-06-26T05:31:15;10.38;;;5.03;;
65033;SDS011;51601;51.356;12.458;2023-06-26T05:35:34;6.45;;;3.08;;
65033;SDS011;51601;51.356;12.458;2023-06-26T05:39:56;7.40;;;4.43;;
65033;SDS011;51601;51.356;12.458;2023-06-26T05:44:14;8.63;;;4.80;;
65033;SDS011;51601;51.356;12.458;2023-06-26T05:48:33;9.70;;;5.53;;
65033;SDS011;51601;51.356;12.458;2023-06-26T05:52:53;9.63;;;5.67;;
65033;SDS011;51601;51.356;12.458;2023-06-26T05:57:11;8.63;;;5.05;;
65033;SDS011;51601;51.356;12.458;2023-06-26T06:01:32;9.43;;;4.95;;
65033;SDS011;51601;51.356;12.458;2023-06-26T06:05:51;9.32;;;4.80;;
65033;SDS011;51601;51.356;12.458;2023-06-26T06:10:08;9.27;;;5.30;;
65033;SDS011;51601;51.356;12.458;2023-06-26T06:14:26;8.10;;;5.68;;
65033;SDS011;51601;51.356;12.458;2023-06-26T06:18:44;9.70;;;4.70;;
65033;SDS011;51601;51.356;12.458;2023-06-26T06:23:04;9.47;;;5.50;;
65033;SDS011;51601;51.356;12.458;2023-06-26T06:27:23;7.82;;;4.60;;
65033;SDS011;51601;51.356;12.458;2023-06-26T06:31:41;10.02;;;5.65;;
65033;SDS011;51601;51.356;12.458;2023-06-26T06:35:59;9.17;;;5.40;;
65033;SDS011;51601;51.356;12.458;2023-06-26T06:40:19;9.50;;;4.90;;
65033;SDS011;51601;51.356;12.458;2023-06-26T06:44:39;10.52;;;5.07;;
65033;SDS011;51601;51.356;12.458;2023-06-26T06:48:57;10.32;;;5.30;;
65033;SDS011;51601;51.356;12.458;2023-06-26T06:53:15;9.90;;;5.57;;
65033;SDS011;51601;51.356;12.458;2023-06-26T06:57:34;8.95;;;4.95;;
65033;SDS011;51601;51.356;12.458;2023-06-26T07:01:54;14.30;;;5.70;;
65033;SDS011;51601;51.356;12.458;2023-06-26T07:06:12;9.13;;;5.80;;
65033;SDS011;51601;51.356;12.458;2023-06-26T07:10:30;9.68;;;5.13;;
65033;SDS011;51601;51.356;12.458;2023-06-26T07:14:49;8.65;;;5.53;;
65033;SDS011;51601;51.356;12.458;2023-06-26T07:19:06;9.37;;;5.53;;
65033;SDS011;51601;51.356;12.458;2023-06-26T07:23:24;9.45;;;5.03;;
65033;SDS011;51601;51.356;12.458;2023-06-26T07:27:42;10.00;;;5.30;;
65033;SDS011;51601;51.356;12.458;2023-06-26T07:32:02;8.40;;;5.45;;
65033;SDS011;51601;51.356;12.458;2023-06-26T07:36:21;11.73;;;5.47;;
65033;SDS011;51601;51.356;12.458;2023-06-26T07:40:39;21.33;;;7.13;;
65033;SDS011;51601;51.356;12.458;2023-06-26T07:44:58;12.65;;;5.38;;
65033;SDS011;51601;51.356;12.458;2023-06-26T07:49:18;15.87;;;6.20;;
65033;SDS011;51601;51.356;12.458;2023-06-26T07:53:43;11.57;;;5.55;;
65033;SDS011;51601;51.356;12.458;2023-06-26T07:58:01;9.90;;;5.35;;
65033;SDS011;51601;51.356;12.458;2023-06-26T08:02:19;10.07;;;5.07;;
65033;SDS011;51601;51.356;12.458;2023-06-26T08:06:38;10.63;;;5.43;;
65033;SDS011;51601;51.356;12.458;2023-06-26T08:10:58;9.43;;;5.18;;
65033;SDS011;51601;51.356;12.458;2023-06-26T08:15:17;10.35;;;5.53;;
65033;SDS011;51601;51.356;12.458;2023-06-26T08:19:40;8.90;;;5.07;;
65033;SDS011;51601;51.356;12.458;2023-06-26T08:24:00;11.48;;;5.50;;
65033;SDS011;51601;51.356;12.458;2023-06-26T08:28:20;9.63;;;5.22;;
65033;SDS011;51601;51.356;12.458;2023-06-26T08:32:38;10.33;;;5.10;;
65033;SDS011;51601;51.356;12.458;2023-06-26T08:36:56;9.70;;;5.80;;
65033;SDS011;51601;51.356;12.458;2023-06-26T08:41:15;10.73;;;5.00;;
65033;SDS011;51601;51.356;12.458;2023-06-26T08:45:35;7.80;;;4.87;;
65033;SDS011;51601;51.356;12.458;2023-06-26T08:49:56;9.02;;;5.20;;
65033;SDS011;51601;51.356;12.458;2023-06-26T08:54:21;9.90;;;5.03;;
65033;SDS011;51601;51.356;12.458;2023-06-26T08:58:52;8.07;;;5.25;;
65033;SDS011;51601;51.356;12.458;2023-06-26T09:03:12;7.87;;;5.07;;
65033;SDS011;51601;51.356;12.458;2023-06-26T09:07:30;10.18;;;5.43;;
65033;SDS011;51601;51.356;12.458;2023-06-26T09:11:48;8.38;;;5.40;;
65033;SDS011;51601;51.356;12.458;2023-06-26T09:16:07;8.07;;;5.40;;
65033;SDS011;51601;51.356;12.458;2023-06-26T09:20:27;9.23;;;5.03;;
65033;SDS011;51601;51.356;12.458;2023-06-26T09:24:45;7.20;;;4.80;;
65033;SDS011;51601;51.356;12.458;2023-06-26T09:29:03;7.27;;;4.60;;
65033;SDS011;51601;51.356;12.458;2023-06-26T09:33:26;8.00;;;5.18;;
65033;SDS011;51601;51.356;12.458;2023-06-26T09:37:45;7.65;;;4.93;;
65033;SDS011;51601;51.356;12.458;2023-06-26T09:42:04;9.93;;;5.00;;
65033;SDS011;51601;51.356;12.458;2023-06-26T09:46:24;8.63;;;4.90;;
65033;SDS011;51601;51.356;12.458;2023-06-26T09:50:44;9.00;;;4.70;;
65033;SDS011;51601;51.356;12.458;2023-06-26T09:55:23;7.25;;;4.72;;
65033;SDS011;51601;51.356;12.458;2023-06-26T09:59:43;8.47;;;5.03;;
65033;SDS011;51601;51.356;12.458;2023-06-26T10:04:01;8.15;;;4.90;;
65033;SDS011;51601;51.356;12.458;2023-06-26T10:08:24;8.30;;;4.97;;
65033;SDS011;51601;51.356;12.458;2023-06-26T10:12:40;9.63;;;5.20;;
65033;SDS011;51601;51.356;12.458;2023-06-26T10:17:03;8.75;;;5.15;;
65033;SDS011;51601;51.356;12.458;2023-06-26T10:21:24;7.20;;;4.65;;
65033;SDS011;51601;51.356;12.458;2023-06-26T10:25:51;9.60;;;4.90;;
65033;SDS011;51601;51.356;12.458;2023-06-26T10:30:09;8.43;;;4.90;;
65033;SDS011;51601;51.356;12.458;2023-06-26T10:34:29;25.45;;;10.15;;
65033;SDS011;51601;51.356;12.458;2023-06-26T10:38:51;9.30;;;4.80;;
65033;SDS011;51601;51.356;12.458;2023-06-26T10:43:10;7.50;;;4.80;;
65033;SDS011;51601;51.356;12.458;2023-06-26T10:47:30;7.55;;;4.80;;
65033;SDS011;51601;51.356;12.458;2023-06-26T10:51:48;8.35;;;4.80;;
65033;SDS011;51601;51.356;12.458;2023-06-26T10:56:06;7.50;;;5.00;;
65033;SDS011;51601;51.356;12.458;2023-06-26T11:00:25;7.05;;;4.65;;
65033;SDS011;51601;51.356;12.458;2023-06-26T11:04:46;7.53;;;4.60;;
65033;SDS011;51601;51.356;12.458;2023-06-26T11:09:07;7.65;;;4.63;;
65033;SDS011;51601;51.356;12.458;2023-06-26T11:13:27;8.57;;;4.90;;
65033;SDS011;51601;51.356;12.458;2023-06-26T11:17:46;7.93;;;4.80;;
65033;SDS011;51601;51.356;12.458;2023-06-26T11:22:06;7.30;;;4.55;;
65033;SDS011;51601;51.356;12.458;2023-06-26T11:26:24;8.43;;;4.57;;
65033;SDS011;51601;51.356;12.458;2023-06-26T11:30:42;7.70;;;4.80;;
65033;SDS011;51601;51.356;12.458;2023-06-26T11:35:02;7.05;;;5.00;;
65033;SDS011;51601;51.356;12.458;2023-06-26T11:39:21;7.80;;;4.93;;
65033;SDS011;51601;51.356;12.458;2023-06-26T11:43:40;8.27;;;4.88;;
65033;SDS011;51601;51.356;12.458;2023-06-26T11:47:58;7.20;;;4.90;;
65033;SDS011;51601;51.356;12.458;2023-06-26T11:52:17;8.13;;;4.78;;
65033;SDS011;51601;51.356;12.458;2023-06-26T11:56:37;8.87;;;5.10;;
65033;SDS011;51601;51.356;12.458;2023-06-26T12:00:55;8.68;;;4.95;;
65033;SDS011;51601;51.356;12.458;2023-06-26T12:05:13;7.93;;;5.03;;
65033;SDS011;51601;51.356;12.458;2023-06-26T12:09:32;8.33;;;5.03;;
65033;SDS011;51601;51.356;12.458;2023-06-26T12:13:52;9.40;;;5.25;;
65033;SDS011;51601;51.356;12.458;2023-06-26T12:18:10;9.35;;;5.20;;
65033;SDS011;51601;51.356;12.458;2023-06-26T12:22:33;8.37;;;5.00;;
65033;SDS011;51601;51.356;12.458;2023-06-26T12:26:54;7.60;;;4.50;;
65033;SDS011;51601;51.356;12.458;2023-06-26T12:31:14;8.13;;;5.00;;
65033;SDS011;51601;51.356;12.458;2023-06-26T12:35:32;9.80;;;4.95;;
65033;SDS011;51601;51.356;12.458;2023-06-26T12:39:50;7.73;;;4.80;;
65033;SDS011;51601;51.356;12.458;2023-06-26T12:44:17;7.90;;;4.93;;
65033;SDS011;51601;51.356;12.458;2023-06-26T12:48:38;8.05;;;4.82;;
65033;SDS011;51601;51.356;12.458;2023-06-26T12:52:59;8.67;;;5.20;;
65033;SDS011;51601;51.356;12.458;2023-06-26T12:57:17;9.50;;;4.88;;
65033;SDS011;51601;51.356;12.458;2023-06-26T13:01:37;8.95;;;4.80;;
65033;SDS011;51601;51.356;12.458;2023-06-26T13:05:54;8.67;;;5.17;;
65033;SDS011;51601;51.356;12.458;2023-06-26T13:10:11;7.68;;;4.68;;
65033;SDS011;51601;51.356;12.458;2023-06-26T13:14:29;8.70;;;4.60;;
65033;SDS011;51601;51.356;12.458;2023-06-26T13:18:49;7.63;;;4.90;;
65033;SDS011;51601;51.356;12.458;2023-06-26T13:23:05;7.27;;;4.60;;
65033;SDS011;51601;51.356;12.458;2023-06-26T13:27:24;7.95;;;4.75;;
65033;SDS011;51601;51.356;12.458;2023-06-26T13:31:42;7.97;;;4.80;;
65033;SDS011;51601;51.356;12.458;2023-06-26T13:36:01;9.30;;;4.90;;
65033;SDS011;51601;51.356;12.458;2023-06-26T13:40:21;8.75;;;4.63;;
65033;SDS011;51601;51.356;12.458;2023-06-26T13:44:39;10.18;;;5.00;;
65033;SDS011;51601;51.356;12.458;2023-06-26T13:49:15;9.70;;;4.80;;
65033;SDS011;51601;51.356;12.458;2023-06-26T13:53:35;8.98;;;5.22;;
65033;SDS011;51601;51.356;12.458;2023-06-26T13:57:55;8.02;;;5.05;;
65033;SDS011;51601;51.356;12.458;2023-06-26T14:02:12;9.13;;;5.00;;
65033;SDS011;51601;51.356;12.458;2023-06-26T14:06:31;8.27;;;5.60;;
65033;SDS011;51601;51.356;12.458;2023-06-26T14:10:53;23.67;;;6.18;;
65033;SDS011;51601;51.356;12.458;2023-06-26T14:15:10;20.65;;;7.50;;
65033;SDS011;51601;51.356;12.458;2023-06-26T14:19:28;22.90;;;9.30;;
65033;SDS011;51601;51.356;12.458;2023-06-26T14:23:46;20.83;;;10.13;;
65033;SDS011;51601;51.356;12.458;2023-06-26T14:28:05;17.70;;;10.50;;
65033;SDS011;51601;51.356;12.458;2023-06-26T14:32:22;19.07;;;9.60;;
65033;SDS011;51601;51.356;12.458;2023-06-26T14:36:40;15.68;;;10.50;;
65033;SDS011;51601;51.356;12.458;2023-06-26T14:40:58;15.85;;;10.30;;
65033;SDS011;51601;51.356;12.458;2023-06-26T14:45:18;17.88;;;10.25;;
65033;SDS011;51601;51.356;12.458;2023-06-26T14:49:37;18.03;;;10.60;;
65033;SDS011;51601;51.356;12.458;2023-06-26T14:53:55;15.60;;;11.23;;
65033;SDS011;51601;51.356;12.458;2023-06-26T14:58:13;15.35;;;11.18;;
65033;SDS011;51601;51.356;12.458;2023-06-26T15:02:33;15.23;;;10.77;;
65033;SDS011;51601;51.356;12.458;2023-06-26T15:06:53;16.70;;;10.35;;
65033;SDS011;51601;51.356;12.458;2023-06-26T15:11:11;14.18;;;9.32;;
65033;SDS011;51601;51.356;12.458;2023-06-26T15:15:29;13.70;;;9.47;;
65033;SDS011;51601;51.356;12.458;2023-06-26T15:19:49;15.23;;;7.88;;
65033;SDS011;51601;51.356;12.458;2023-06-26T15:24:08;12.45;;;7.22;;
65033;SDS011;51601;51.356;12.458;2023-06-26T15:28:26;14.75;;;7.60;;
65033;SDS011;51601;51.356;12.458;2023-06-26T15:32:44;12.07;;;6.53;;
65033;SDS011;51601;51.356;12.458;2023-06-26T15:37:04;13.30;;;7.30;;
65033;SDS011;51601;51.356;12.458;2023-06-26T15:41:23;11.25;;;6.38;;
65033;SDS011;51601;51.356;12.458;2023-06-26T15:45:41;11.33;;;6.77;;
65033;SDS011;51601;51.356;12.458;2023-06-26T15:49:59;12.60;;;6.85;;
65033;SDS011;51601;51.356;12.458;2023-06-26T15:54:19;11.75;;;7.00;;
65033;SDS011;51601;51.356;12.458;2023-06-26T15:58:36;13.30;;;6.57;;
65033;SDS011;51601;51.356;12.458;2023-06-26T16:02:57;13.65;;;6.60;;
65033;SDS011;51601;51.356;12.458;2023-06-26T16:07:15;15.15;;;6.47;;
65033;SDS011;51601;51.356;12.458;2023-06-26T16:11:34;11.07;;;6.78;;
65033;SDS011;51601;51.356;12.458;2023-06-26T16:15:54;13.17;;;6.63;;
65033;SDS011;51601;51.356;12.458;2023-06-26T16:20:12;11.55;;;7.05;;
65033;SDS011;51601;51.356;12.458;2023-06-26T16:24:31;10.98;;;6.32;;
65033;SDS011;51601;51.356;12.458;2023-06-26T16:28:49;13.10;;;7.37;;
65033;SDS011;51601;51.356;12.458;2023-06-26T16:33:09;11.35;;;7.00;;
65033;SDS011;51601;51.356;12.458;2023-06-26T16:37:27;13.30;;;7.55;;
65033;SDS011;51601;51.356;12.458;2023-06-26T16:41:45;11.50;;;7.27;;
65033;SDS011;51601;51.356;12.458;2023-06-26T16:46:08;12.88;;;8.15;;
65033;SDS011;51601;51.356;12.458;2023-06-26T16:50:24;13.43;;;8.15;;
65033;SDS011;51601;51.356;12.458;2023-06-26T16:54:42;13.85;;;7.75;;
65033;SDS011;51601;51.356;12.458;2023-06-26T16:59:00;14.33;;;7.50;;
65033;SDS011;51601;51.356;12.458;2023-06-26T17:03:20;14.52;;;7.90;;
65033;SDS011;51601;51.356;12.458;2023-06-26T17:07:40;11.50;;;7.70;;
65033;SDS011;51601;51.356;12.458;2023-06-26T17:11:58;11.07;;;6.80;;
65033;SDS011;51601;51.356;12.458;2023-06-26T17:16:16;12.20;;;7.00;;
65033;SDS011;51601;51.356;12.458;2023-06-26T17:20:35;11.45;;;7.03;;
65033;SDS011;51601;51.356;12.458;2023-06-26T17:24:55;13.97;;;7.03;;
65033;SDS011;51601;51.356;12.458;2023-06-26T17:29:16;12.43;;;7.40;;
65033;SDS011;51601;51.356;12.458;2023-06-26T17:33:34;11.35;;;6.35;;
65033;SDS011;51601;51.356;12.458;2023-06-26T17:37:54;10.65;;;6.22;;
65033;SDS011;51601;51.356;12.458;2023-06-26T17:42:13;12.57;;;5.50;;
65033;SDS011;51601;51.356;12.458;2023-06-26T17:46:31;11.02;;;5.80;;
65033;SDS011;51601;51.356;12.458;2023-06-26T17:50:49;10.50;;;5.70;;
65033;SDS011;51601;51.356;12.458;2023-06-26T17:55:09;11.57;;;5.50;;
65033;SDS011;51601;51.356;12.458;2023-06-26T17:59:29;10.73;;;5.38;;
65033;SDS011;51601;51.356;12.458;2023-06-26T18:03:47;10.70;;;5.50;;
65033;SDS011;51601;51.356;12.458;2023-06-26T18:08:05;11.13;;;5.40;;
65033;SDS011;51601;51.356;12.458;2023-06-26T18:12:24;9.07;;;5.70;;
65033;SDS011;51601;51.356;12.458;2023-06-26T18:16:41;9.50;;;5.07;;
65033;SDS011;51601;51.356;12.458;2023-06-26T18:20:59;10.68;;;4.68;;
65033;SDS011;51601;51.356;12.458;2023-06-26T18:25:17;8.63;;;5.10;;
65033;SDS011;51601;51.356;12.458;2023-06-26T18:29:39;10.75;;;5.05;;
65033;SDS011;51601;51.356;12.458;2023-06-26T18:33:56;10.48;;;5.00;;
65033;SDS011;51601;51.356;12.458;2023-06-26T18:38:14;13.50;;;4.97;;
65033;SDS011;51601;51.356;12.458;2023-06-26T18:42:32;8.50;;;4.68;;
65033;SDS011;51601;51.356;12.458;2023-06-26T18:46:52;10.50;;;4.72;;
65033;SDS011;51601;51.356;12.458;2023-06-26T18:51:11;11.20;;;4.57;;
65033;SDS011;51601;51.356;12.458;2023-06-26T18:55:30;8.75;;;4.28;;
65033;SDS011;51601;51.356;12.458;2023-06-26T18:59:51;8.50;;;4.40;;
65033;SDS011;51601;51.356;12.458;2023-06-26T19:04:10;8.02;;;4.32;;
65033;SDS011;51601;51.356;12.458;2023-06-26T19:08:30;8.10;;;4.10;;
65033;SDS011;51601;51.356;12.458;2023-06-26T19:12:48;8.82;;;3.90;;
65033;SDS011;51601;51.356;12.458;2023-06-26T19:17:06;8.82;;;4.03;;
65033;SDS011;51601;51.356;12.458;2023-06-26T19:21:25;8.93;;;4.07;;
65033;SDS011;51601;51.356;12.458;2023-06-26T19:25:45;7.43;;;4.00;;
65033;SDS011;51601;51.356;12.458;2023-06-26T19:30:03;9.50;;;4.40;;
65033;SDS011;51601;51.356;12.458;2023-06-26T19:34:24;8.97;;;4.17;;
65033;SDS011;51601;51.356;12.458;2023-06-26T19:38:44;11.38;;;4.32;;
65033;SDS011;51601;51.356;12.458;2023-06-26T19:43:03;10.25;;;4.40;;
65033;SDS011;51601;51.356;12.458;2023-06-26T19:47:21;10.07;;;4.28;;
65033;SDS011;51601;51.356;12.458;2023-06-26T19:51:40;8.77;;;4.37;;
65033;SDS011;51601;51.356;12.458;2023-06-26T19:55:59;10.30;;;3.95;;
65033;SDS011;51601;51.356;12.458;2023-06-26T20:00:16;8.20;;;4.32;;
65033;SDS011;51601;51.356;12.458;2023-06-26T20:04:34;10.77;;;4.77;;
65033;SDS011;51601;51.356;12.458;2023-06-26T20:08:52;10.48;;;4.40;;
65033;SDS011;51601;51.356;12.458;2023-06-26T20:13:11;9.32;;;4.00;;
65033;SDS011;51601;51.356;12.458;2023-06-26T20:17:31;9.27;;;4.30;;
65033;SDS011;51601;51.356;12.458;2023-06-26T20:21:49;9.85;;;3.70;;
65033;SDS011;51601;51.356;12.458;2023-06-26T20:26:07;8.18;;;4.07;;
65033;SDS011;51601;51.356;12.458;2023-06-26T20:30:26;7.35;;;3.88;;
65033;SDS011;51601;51.356;12.458;2023-06-26T20:34:43;7.70;;;3.50;;
65033;SDS011;51601;51.356;12.458;2023-06-26T20:39:01;8.27;;;3.55;;
65033;SDS011;51601;51.356;12.458;2023-06-26T20:43:19;7.60;;;3.53;;
65033;SDS011;51601;51.356;12.458;2023-06-26T20:47:39;9.50;;;3.70;;
65033;SDS011;51601;51.356;12.458;2023-06-26T20:51:58;8.15;;;3.50;;
65033;SDS011;51601;51.356;12.458;2023-06-26T20:56:17;7.85;;;3.13;;
65033;SDS011;51601;51.356;12.458;2023-06-26T21:00:34;7.93;;;2.80;;
65033;SDS011;51601;51.356;12.458;2023-06-26T21:04:54;8.57;;;3.13;;
65033;SDS011;51601;51.356;12.458;2023-06-26T21:09:14;7.47;;;2.80;;
65033;SDS011;51601;51.356;12.458;2023-06-26T21:13:32;9.63;;;3.30;;
65033;SDS011;51601;51.356;12.458;2023-06-26T21:17:50;8.23;;;2.83;;
65033;SDS011;51601;51.356;12.458;2023-06-26T21:22:10;8.90;;;3.22;;
65033;SDS011;51601;51.356;12.458;2023-06-26T21:26:29;7.68;;;2.90;;
65033;SDS011;51601;51.356;12.458;2023-06-26T21:30:47;6.80;;;3.10;;
65033;SDS011;51601;51.356;12.458;2023-06-26T21:35:05;7.38;;;3.20;;
65033;SDS011;51601;51.356;12.458;2023-06-26T21:39:25;7.32;;;2.83;;
65033;SDS011;51601;51.356;12.458;2023-06-26T21:43:41;10.03;;;3.10;;
65033;SDS011;51601;51.356;12.458;2023-06-26T21:47:59;10.23;;;2.80;;
65033;SDS011;51601;51.356;12.458;2023-06-26T21:52:17;7.28;;;3.10;;
65033;SDS011;51601;51.356;12.458;2023-06-26T21:56:37;8.32;;;3.13;;
65033;SDS011;51601;51.356;12.458;2023-06-26T22:00:57;6.97;;;2.77;;
65033;SDS011;51601;51.356;12.458;2023-06-26T22:05:15;7.30;;;3.00;;
65033;SDS011;51601;51.356;12.458;2023-06-26T22:09:33;8.38;;;2.80;;
65033;SDS011;51601;51.356;12.458;2023-06-26T22:13:52;7.17;;;3.10;;
65033;SDS011;51601;51.356;12.458;2023-06-26T22:18:09;7.63;;;3.20;;
65033;SDS011;51601;51.356;12.458;2023-06-26T22:22:27;7.25;;;3.42;;
65033;SDS011;51601;51.356;12.458;2023-06-26T22:26:45;7.87;;;3.20;;
65033;SDS011;51601;51.356;12.458;2023-06-26T22:31:04;7.97;;;3.25;;
65033;SDS011;51601;51.356;12.458;2023-06-26T22:35:21;9.00;;;3.22;;
65033;SDS011;51601;51.356;12.458;2023-06-26T22:39:39;6.97;;;3.10;;
65033;SDS011;51601;51.356;12.458;2023-06-26T22:43:57;7.23;;;3.17;;
65033;SDS011;51601;51.356;12.458;2023-06-26T22:48:17;8.32;;;3.13;;
65033;SDS011;51601;51.356;12.458;2023-06-26T22:52:36;7.18;;;2.95;;
65033;SDS011;51601;51.356;12.458;2023-06-26T22:56:54;7.20;;;2.97;;
65033;SDS011;51601;51.356;12.458;2023-06-26T23:01:12;7.47;;;3.05;;
65033;SDS011;51601;51.356;12.458;2023-06-26T23:05:32;6.72;;;3.05;;
65033;SDS011;51601;51.356;12.458;2023-06-26T23:09:48;7.40;;;3.07;;
65033;SDS011;51601;51.356;12.458;2023-06-26T23:14:06;10.10;;;3.00;;
65033;SDS011;51601;51.356;12.458;2023-06-26T23:18:25;7.68;;;3.10;;
65033;SDS011;51601;51.356;12.458;2023-06-26T23:22:44;7.85;;;2.90;;
65033;SDS011;51601;51.356;12.458;2023-06-26T23:27:04;6.00;;;2.80;;
65033;SDS011;51601;51.356;12.458;2023-06-26T23:31:25;7.07;;;3.10;;
65033;SDS011;51601;51.356;12.458;2023-06-26T23:35:43;8.50;;;2.55;;
65033;SDS011;51601;51.356;12.458;2023-06-26T23:40:06;7.47;;;2.97;;
65033;SDS011;51601;51.356;12.458;2023-06-26T23:44:25;8.95;;;3.30;;
65033;SDS011;51601;51.356;12.458;2023-06-26T23:48:43;6.50;;;2.67;;
65033;SDS011;51601;51.356;12.458;2023-06-26T23:53:01;8.77;;;3.07;;
65033;SDS011;51601;51.356;12.458;2023-06-26T23:57:21;7.20;;;2.80;;
